Time;durP1;ratioP1;P1;durP2;ratioP2;P2;SDS_P1;SDS_P2;PMS_P1;PMS_P2;Temp;Humidity;BMP_temperature;BMP_pressure;BME280_temperature;BME280_humidity;BME280_pressure;Samples;Min_cycle;Max_cycle;Signal;HPM_P1;HPM_P2
2022/05/24 00:02:05;;;;;;;2.75;1.90;;;13.30;78.40;;;;;;5037494;28;20040;-79
2022/05/24 00:04:32;;;;;;;3.33;1.98;;;13.30;78.60;;;;;;5054009;28;20025;-80
2022/05/24 00:06:58;;;;;;;3.22;1.70;;;13.30;78.40;;;;;;5054006;28;20017;-79
2022/05/24 00:09:27;;;;;;;3.05;1.77;;;13.30;78.20;;;;;;5055460;28;20040;-79
2022/05/24 00:11:53;;;;;;;3.50;1.15;;;13.30;78.40;;;;;;5034723;28;20036;-79
2022/05/24 00:15:19;;;;;;;4.05;1.88;;;13.20;78.60;;;;;;5033997;28;20037;-80
2022/05/24 00:17:05;;;;;;;2.05;1.27;;;13.10;78.90;;;;;;5035045;28;20037;-79
2022/05/24 00:19:32;;;;;;;3.70;1.52;;;13.10;78.90;;;;;;5030100;28;20128;-79
2022/05/24 00:21:58;;;;;;;1.40;1.10;;;13.20;78.50;;;;;;5031336;28;20480;-79
2022/05/24 00:24:23;;;;;;;3.53;1.80;;;13.10;78.30;;;;;;5028905;28;20137;-80
2022/05/24 00:26:49;;;;;;;3.45;1.52;;;13.10;78.80;;;;;;5014929;28;20821;-79
2022/05/24 00:29:15;;;;;;;3.70;1.50;;;13.10;78.60;;;;;;5030178;28;20029;-80
2022/05/24 00:31:40;;;;;;;4.07;1.25;;;13.20;78.10;;;;;;5014753;28;20034;-79
2022/05/24 00:34:06;;;;;;;2.63;1.25;;;13.10;77.90;;;;;;5032969;28;20087;-79
2022/05/24 00:36:32;;;;;;;3.15;1.02;;;13.20;77.90;;;;;;5034495;28;20075;-80
2022/05/24 00:38:57;;;;;;;6.15;1.73;;;13.10;78.40;;;;;;5034328;28;20025;-79
2022/05/24 00:41:31;;;;;;;1.90;1.52;;;13.00;78.30;;;;;;5030364;28;20153;-80
2022/05/24 00:44:12;;;;;;;2.63;1.15;;;13.00;78.20;;;;;;5014688;28;20049;-79
2022/05/24 00:47:23;;;;;;;1.98;1.15;;;13.10;77.60;;;;;;5014985;28;20025;-79
2022/05/24 00:49:56;;;;;;;2.72;1.35;;;13.00;78.00;;;;;;5027917;28;20048;-79
2022/05/24 00:52:49;;;;;;;2.50;1.00;;;13.00;78.00;;;;;;5013231;28;20030;-79
2022/05/24 00:55:21;;;;;;;2.53;1.50;;;12.90;78.10;;;;;;5043685;28;20046;-79
2022/05/24 00:57:59;;;;;;;2.40;1.27;;;12.80;78.20;;;;;;5014281;28;20025;-80
2022/05/24 01:00:24;;;;;;;5.05;1.73;;;12.90;77.90;;;;;;5029491;28;20021;-79
2022/05/24 01:02:51;;;;;;;8.95;1.40;;;12.90;77.80;;;;;;5014331;28;20057;-79
2022/05/24 01:05:23;;;;;;;3.35;1.10;;;12.90;78.00;;;;;;5013395;28;20022;-79
2022/05/24 01:07:51;;;;;;;2.53;1.27;;;12.90;77.90;;;;;;5014499;28;20041;-80
2022/05/24 01:10:29;;;;;;;2.50;1.58;;;12.80;78.00;;;;;;5014453;28;20113;-79
2022/05/24 01:13:13;;;;;;;2.65;1.00;;;12.80;77.80;;;;;;5028000;28;20091;-79
2022/05/24 01:15:43;;;;;;;3.53;1.25;;;12.70;78.20;;;;;;5028714;28;20034;-79
2022/05/24 01:18:08;;;;;;;2.92;1.10;;;12.60;78.80;;;;;;5014074;28;20034;-79
2022/05/24 01:20:34;;;;;;;3.83;1.45;;;12.60;78.80;;;;;;5019228;28;20025;-79
2022/05/24 01:23:38;;;;;;;3.13;1.50;;;12.50;78.90;;;;;;5033807;28;20025;-80
2022/05/24 01:26:16;;;;;;;6.85;1.65;;;12.50;78.90;;;;;;5018090;28;20053;-79
2022/05/24 01:28:53;;;;;;;2.70;1.25;;;12.50;79.30;;;;;;5046153;28;20041;-80
2022/05/24 01:31:20;;;;;;;4.43;1.42;;;12.40;79.20;;;;;;5014061;28;20025;-79
2022/05/24 01:36:36;;;;;;;3.78;1.52;;;12.60;78.80;;;;;;5013920;28;20041;-79
2022/05/24 01:39:06;;;;;;;5.50;1.30;;;12.50;78.80;;;;;;5013813;28;20022;-79
2022/05/24 01:41:37;;;;;;;1.52;1.00;;;12.60;78.60;;;;;;5026557;28;20129;-79
2022/05/24 01:44:03;;;;;;;3.72;1.10;;;12.50;78.50;;;;;;5027179;28;20049;-80
2022/05/24 01:46:40;;;;;;;3.42;1.20;;;12.50;78.50;;;;;;5013701;28;20107;-79
2022/05/24 01:49:29;;;;;;;1.70;1.02;;;12.40;78.90;;;;;;5013512;28;20618;-80
2022/05/24 01:52:05;;;;;;;2.17;1.25;;;12.50;78.60;;;;;;5045467;28;20056;-79
2022/05/24 01:54:35;;;;;;;1.20;1.00;;;12.50;78.60;;;;;;5013287;28;20042;-79
2022/05/24 01:57:15;;;;;;;2.40;1.30;;;12.50;78.70;;;;;;5013474;28;20415;-79
2022/05/24 01:59:43;;;;;;;3.20;1.38;;;12.50;78.50;;;;;;5033137;28;20561;-79
2022/05/24 02:02:09;;;;;;;2.78;1.05;;;12.50;78.40;;;;;;5033149;28;20033;-79
2022/05/24 02:04:47;;;;;;;;;;;;;;;;;;;;;
2022/05/24 02:07:21;;;;;;;2.90;1.50;;;12.40;78.10;;;;;;5013530;28;20038;-80
2022/05/24 02:09:51;;;;;;;3.90;1.23;;;12.40;78.60;;;;;;5013579;28;20080;-79
2022/05/24 02:12:19;;;;;;;2.75;1.27;;;12.40;78.80;;;;;;5020669;28;20060;-79
2022/05/24 02:14:50;;;;;;;6.20;1.27;;;12.40;78.50;;;;;;5032040;28;20480;-79
2022/05/24 02:17:22;;;;;;;3.05;1.50;;;12.40;78.60;;;;;;5033291;28;20034;-79
2022/05/24 02:19:52;;;;;;;7.63;1.27;;;12.40;78.50;;;;;;5033424;28;20022;-79
2022/05/24 02:22:22;;;;;;;4.88;1.40;;;12.30;78.40;;;;;;5028155;28;20029;-79
2022/05/24 02:25:03;;;;;;;7.40;1.65;;;12.30;78.60;;;;;;5013367;28;20030;-79
2022/05/24 02:27:47;;;;;;;1.60;1.05;;;12.30;78.90;;;;;;5013235;28;20092;-79
2022/05/24 02:30:20;;;;;;;2.78;1.35;;;12.20;79.00;;;;;;5013323;28;20100;-79
2022/05/24 02:32:46;;;;;;;2.63;1.00;;;12.10;79.50;;;;;;5020144;28;20034;-79
2022/05/24 02:35:13;;;;;;;4.78;1.88;;;12.20;79.30;;;;;;5031479;28;20566;-79
2022/05/24 02:37:39;;;;;;;3.03;1.50;;;12.20;79.10;;;;;;5016429;28;20157;-79
2022/05/24 02:42:50;;;;;;;3.28;0.93;;;12.20;79.30;;;;;;5013322;28;20045;-80
2022/05/24 02:45:16;;;;;;;1.92;1.25;;;12.20;79.30;;;;;;5013262;28;20417;-79
2022/05/24 02:47:42;;;;;;;3.00;1.02;;;12.10;79.40;;;;;;5025332;28;20025;-79
2022/05/24 02:50:11;;;;;;;1.75;1.17;;;12.10;79.10;;;;;;5032672;28;20040;-79
2022/05/24 02:52:40;;;;;;;4.85;1.30;;;12.10;79.20;;;;;;5012026;28;20559;-79
2022/05/24 02:55:08;;;;;;;2.42;1.02;;;12.10;78.90;;;;;;5014401;28;20038;-79
2022/05/24 02:57:34;;;;;;;5.75;1.30;;;12.00;79.10;;;;;;5016575;28;20052;-79
2022/05/24 03:00:00;;;;;;;3.70;1.45;;;12.00;79.30;;;;;;5016648;28;20739;-79
2022/05/24 03:02:26;;;;;;;2.30;0.98;;;11.90;79.40;;;;;;5016744;28;20120;-79
2022/05/24 03:04:51;;;;;;;1.20;0.80;;;11.90;79.50;;;;;;5016563;28;20117;-80
2022/05/24 03:10:11;;;;;;;5.57;1.42;;;11.80;79.80;;;;;;5016729;28;20100;-79
2022/05/24 03:15:21;;;;;;;2.30;1.00;;;11.90;79.60;;;;;;5016744;28;20045;-79
2022/05/24 03:17:47;;;;;;;2.50;1.10;;;11.80;79.90;;;;;;5016333;28;20030;-79
2022/05/24 03:20:13;;;;;;;1.90;1.17;;;11.80;79.80;;;;;;5019688;28;20021;-79
2022/05/24 03:22:39;;;;;;;2.63;0.98;;;11.80;80.10;;;;;;5027910;28;20848;-79
2022/05/24 03:25:05;;;;;;;3.35;1.30;;;11.80;79.90;;;;;;5021622;28;20041;-79
2022/05/24 03:27:30;;;;;;;2.33;1.15;;;11.80;79.80;;;;;;5016040;28;20026;-79
2022/05/24 03:30:14;;;;;;;1.45;0.93;;;11.70;80.10;;;;;;5016297;28;20030;-79
2022/05/24 03:32:40;;;;;;;5.25;1.50;;;11.70;80.30;;;;;;5022257;28;20483;-79
2022/05/24 03:35:07;;;;;;;3.35;1.02;;;11.80;80.00;;;;;;5035885;28;20124;-79
2022/05/24 03:37:33;;;;;;;3.92;1.30;;;11.80;80.00;;;;;;5035941;28;20032;-79
2022/05/24 03:39:59;;;;;;;4.15;1.10;;;11.90;79.60;;;;;;5034696;28;20030;-79
2022/05/24 03:42:24;;;;;;;2.85;1.20;;;11.80;79.70;;;;;;5016939;28;20400;-80
2022/05/24 03:44:50;;;;;;;1.58;1.27;;;11.80;79.70;;;;;;5031001;28;20124;-79
2022/05/24 03:47:18;;;;;;;3.08;1.00;;;11.80;79.80;;;;;;5014961;28;20026;-79
2022/05/24 03:49:44;;;;;;;2.38;1.00;;;11.80;79.40;;;;;;5015714;28;20073;-79
2022/05/24 03:52:10;;;;;;;3.28;1.42;;;11.80;79.30;;;;;;5015747;28;20026;-79
2022/05/24 03:54:35;;;;;;;2.58;1.33;;;11.70;79.50;;;;;;5015973;28;20752;-79
2022/05/24 03:59:45;;;;;;;2.97;1.40;;;11.50;80.10;;;;;;5035644;28;20040;-79
2022/05/24 04:02:11;;;;;;;1.40;0.98;;;11.50;80.10;;;;;;5033973;28;20559;-79
2022/05/24 04:04:41;;;;;;;1.38;0.95;;;11.60;79.70;;;;;;5047250;28;20022;-78
2022/05/24 04:07:07;;;;;;;3.70;1.05;;;11.60;79.50;;;;;;5014965;28;20113;-79
2022/05/24 04:09:33;;;;;;;5.65;1.33;;;11.60;79.50;;;;;;5015402;28;20080;-79
2022/05/24 04:11:59;;;;;;;1.73;1.10;;;11.60;79.50;;;;;;5047128;28;20119;-79
2022/05/24 04:14:24;;;;;;;7.55;0.95;;;11.60;79.60;;;;;;5020733;28;20026;-79
2022/05/24 04:16:52;;;;;;;1.80;1.30;;;11.50;79.70;;;;;;5035122;28;20029;-79
2022/05/24 04:19:17;;;;;;;4.13;1.40;;;11.50;79.70;;;;;;5035230;28;20025;-84
2022/05/24 04:21:43;;;;;;;2.42;1.42;;;11.40;79.90;;;;;;5033178;28;20017;-85
2022/05/24 04:24:09;;;;;;;4.55;1.20;;;11.40;80.10;;;;;;5035167;28;20079;-89
2022/05/24 04:26:34;;;;;;;1.70;1.00;;;11.40;80.20;;;;;;5032269;28;20141;-79
2022/05/24 04:29:00;;;;;;;1.98;1.08;;;11.30;80.00;;;;;;5034776;28;20051;-79
2022/05/24 04:31:26;;;;;;;3.63;1.08;;;11.40;80.10;;;;;;5034905;28;20029;-79
2022/05/24 04:33:52;;;;;;;1.77;1.38;;;11.40;80.10;;;;;;5034752;28;20045;-80
2022/05/24 04:36:17;;;;;;;5.93;1.52;;;11.30;79.90;;;;;;5019082;28;20088;-80
2022/05/24 04:38:43;;;;;;;1.50;1.25;;;11.30;79.90;;;;;;5014727;28;20029;-80
2022/05/24 04:43:53;;;;;;;1.52;1.13;;;11.30;80.00;;;;;;5028695;28;20108;-80
2022/05/24 04:46:19;;;;;;;5.78;1.00;;;11.30;80.10;;;;;;5033939;28;20037;-80
2022/05/24 04:48:45;;;;;;;1.70;1.13;;;11.30;80.10;;;;;;5029418;28;20059;-80
2022/05/24 04:51:11;;;;;;;3.00;1.00;;;11.30;79.90;;;;;;5012195;28;20521;-80
2022/05/24 04:53:37;;;;;;;1.23;0.93;;;11.30;80.00;;;;;;5012433;28;20040;-79
2022/05/24 04:56:03;;;;;;;1.77;0.88;;;11.30;80.10;;;;;;5033172;28;20539;-78
2022/05/24 04:58:29;;;;;;;3.72;1.40;;;11.30;80.30;;;;;;5029372;28;20036;-79
2022/05/24 05:00:54;;;;;;;2.67;1.08;;;11.30;80.20;;;;;;5018891;28;20025;-78
2022/05/24 05:03:21;;;;;;;3.30;1.67;;;11.30;80.20;;;;;;5029251;28;20029;-78
2022/05/24 05:05:49;;;;;;;1.15;0.93;;;11.30;80.40;;;;;;5033900;28;20024;-78
2022/05/24 05:08:15;;;;;;;2.85;1.17;;;11.40;80.40;;;;;;5021353;28;20026;-78
2022/05/24 05:10:40;;;;;;;2.95;1.33;;;11.50;80.20;;;;;;5014778;28;20025;-78
2022/05/24 05:13:07;;;;;;;8.13;1.48;;;11.50;80.10;;;;;;5027331;28;20026;-78
2022/05/24 05:15:34;;;;;;;1.98;1.00;;;11.50;80.00;;;;;;5014510;28;20033;-78
2022/05/24 05:18:04;;;;;;;5.53;1.42;;;11.60;79.70;;;;;;5012600;28;20478;-79
2022/05/24 05:20:31;;;;;;;3.75;1.30;;;11.60;79.70;;;;;;5024810;28;20092;-79
2022/05/24 05:22:56;;;;;;;1.55;1.20;;;11.70;79.40;;;;;;5029096;28;20066;-79
2022/05/24 05:25:22;;;;;;;5.03;1.50;;;11.70;79.80;;;;;;5014539;28;20026;-79
2022/05/24 05:27:48;;;;;;;3.13;1.38;;;11.80;79.70;;;;;;5013463;28;20030;-76
2022/05/24 05:32:58;;;;;;;2.38;1.20;;;11.80;79.50;;;;;;5027432;28;20095;-80
2022/05/24 05:35:24;;;;;;;3.13;1.63;;;11.90;79.50;;;;;;5029376;28;20029;-78
2022/05/24 05:37:49;;;;;;;1.33;0.98;;;11.90;79.30;;;;;;5025634;28;20042;-79
2022/05/24 05:40:15;;;;;;;3.65;1.38;;;11.80;80.30;;;;;;5031085;28;20025;-79
2022/05/24 05:42:41;;;;;;;3.30;1.30;;;11.80;80.40;;;;;;5031704;28;20036;-79
2022/05/24 05:45:10;;;;;;;1.70;1.35;;;11.80;80.60;;;;;;5032478;28;20039;-79
2022/05/24 05:47:36;;;;;;;1.98;1.20;;;11.90;80.50;;;;;;5032528;28;20113;-78
2022/05/24 05:50:03;;;;;;;2.67;1.20;;;12.00;80.40;;;;;;5030375;28;20112;-78
2022/05/24 05:52:28;;;;;;;2.10;1.25;;;12.00;80.80;;;;;;5027806;28;20025;-79
2022/05/24 05:54:55;;;;;;;3.65;1.17;;;12.00;81.10;;;;;;5030995;28;20032;-79
2022/05/24 05:57:20;;;;;;;1.55;1.08;;;12.10;81.10;;;;;;5026165;28;20069;-79
2022/05/24 05:59:46;;;;;;;2.03;1.25;;;12.10;81.00;;;;;;5030917;28;20021;-80
2022/05/24 06:02:12;;;;;;;4.47;1.42;;;12.10;81.40;;;;;;5030642;28;20024;-79
2022/05/24 06:04:38;;;;;;;7.30;1.33;;;12.20;81.50;;;;;;5029785;28;20068;-79
2022/05/24 06:07:04;;;;;;;3.00;1.25;;;12.30;81.50;;;;;;5030843;28;20033;-78
2022/05/24 06:09:30;;;;;;;1.52;1.00;;;12.30;81.50;;;;;;5030288;28;20435;-78
2022/05/24 06:11:56;;;;;;;3.13;1.10;;;12.30;81.40;;;;;;5030767;28;20036;-79
2022/05/24 06:14:21;;;;;;;5.32;1.52;;;12.40;81.00;;;;;;5030116;28;20127;-79
2022/05/24 06:16:47;;;;;;;5.18;1.02;;;12.50;80.90;;;;;;5030753;28;20048;-79
2022/05/24 06:19:13;;;;;;;2.00;1.15;;;12.50;80.90;;;;;;5028408;28;20026;-79
2022/05/24 06:21:38;;;;;;;3.60;1.00;;;12.60;80.50;;;;;;5025411;28;20029;-79
2022/05/24 06:24:05;;;;;;;4.00;1.50;;;12.60;80.50;;;;;;5025476;28;20087;-78
2022/05/24 06:26:33;;;;;;;2.85;1.08;;;12.70;80.20;;;;;;5031752;28;20123;-78
2022/05/24 06:28:59;;;;;;;2.10;1.02;;;12.70;80.60;;;;;;5032758;28;20021;-77
2022/05/24 06:31:26;;;;;;;1.92;1.00;;;12.70;80.70;;;;;;5034668;28;20032;-78
2022/05/24 06:33:52;;;;;;;3.17;1.05;;;12.80;80.60;;;;;;5034578;28;20149;-78
2022/05/24 06:36:17;;;;;;;1.90;0.90;;;12.80;80.20;;;;;;5028832;28;20113;-80
2022/05/24 06:38:43;;;;;;;1.40;0.90;;;12.80;80.80;;;;;;5029936;28;20047;-80
2022/05/24 06:41:09;;;;;;;1.92;0.90;;;12.90;80.10;;;;;;5016708;28;20049;-79
2022/05/24 06:43:35;;;;;;;3.03;0.75;;;13.00;79.90;;;;;;5016367;28;20025;-79
2022/05/24 06:46:07;;;;;;;3.50;1.20;;;13.10;79.60;;;;;;5016633;28;20025;-80
2022/05/24 06:48:34;;;;;;;1.60;0.93;;;13.20;79.60;;;;;;5016985;28;20101;-80
2022/05/24 06:51:00;;;;;;;1.25;0.80;;;13.30;79.50;;;;;;5016313;28;20040;-80
2022/05/24 06:53:26;;;;;;;2.22;0.82;;;13.40;79.50;;;;;;5031780;28;20476;-80
2022/05/24 06:55:51;;;;;;;6.45;1.40;;;13.50;79.20;;;;;;5016617;28;20054;-81
2022/05/24 06:58:17;;;;;;;4.35;1.25;;;13.50;78.90;;;;;;5016445;28;20057;-81
2022/05/24 07:03:27;;;;;;;3.92;0.90;;;13.60;78.60;;;;;;5016464;28;20052;-81
2022/05/24 07:05:53;;;;;;;6.57;1.42;;;13.60;78.30;;;;;;5016394;28;20468;-80
2022/05/24 07:08:19;;;;;;;7.88;1.55;;;13.70;78.30;;;;;;5016180;28;20022;-80
2022/05/24 07:10:45;;;;;;;2.30;0.85;;;13.80;78.40;;;;;;5048931;28;20029;-80
2022/05/24 07:13:16;;;;;;;3.28;1.10;;;13.80;77.60;;;;;;5028958;28;20169;-80
2022/05/24 07:15:42;;;;;;;2.35;1.10;;;14.00;77.40;;;;;;5025529;28;20030;-80
2022/05/24 07:18:08;;;;;;;2.45;0.90;;;14.20;77.00;;;;;;5029934;28;20036;-80
2022/05/24 07:20:36;;;;;;;3.22;0.73;;;14.60;75.80;;;;;;5034243;28;20021;-80
2022/05/24 07:23:07;;;;;;;3.70;1.17;;;15.80;73.40;;;;;;5034813;28;20030;-79
2022/05/24 07:25:33;;;;;;;5.60;0.95;;;17.10;69.80;;;;;;5025505;28;20026;-79
2022/05/24 07:27:58;;;;;;;3.78;0.65;;;20.30;61.60;;;;;;5015996;28;20026;-80
2022/05/24 07:30:24;;;;;;;3.35;0.73;;;23.20;51.70;;;;;;5016021;28;20109;-80
2022/05/24 07:32:50;;;;;;;4.47;1.45;;;24.80;46.80;;;;;;5030879;28;20550;-81
2022/05/24 07:35:15;;;;;;;5.07;0.90;;;26.20;44.00;;;;;;5035599;28;20039;-80
2022/05/24 07:37:41;;;;;;;4.90;0.82;;;27.70;40.10;;;;;;5034489;28;20060;-80
2022/05/24 07:48:11;;;;;;;7.07;0.88;;;30.80;33.20;;;;;;5014581;28;20022;-80
2022/05/24 07:50:37;;;;;;;4.95;0.85;;;27.70;38.30;;;;;;5014612;28;20100;-80
2022/05/24 07:53:03;;;;;;;2.88;0.70;;;29.60;36.70;;;;;;5014626;28;20046;-80
2022/05/24 07:55:30;;;;;;;3.75;0.80;;;27.30;38.90;;;;;;5014575;28;20614;-80
2022/05/24 07:57:55;;;;;;;4.82;0.90;;;28.60;35.50;;;;;;5015410;28;20034;-80
2022/05/24 08:00:21;;;;;;;7.00;0.77;;;29.80;35.50;;;;;;5015596;28;20420;-80
2022/05/24 08:02:51;;;;;;;3.58;0.73;;;29.90;35.00;;;;;;5014402;28;20056;-80
2022/05/24 08:05:19;;;;;;;3.08;0.50;;;30.80;31.00;;;;;;5015200;28;20041;-80
2022/05/24 08:07:49;;;;;;;4.65;0.80;;;32.00;32.30;;;;;;5030791;28;20080;-80
2022/05/24 08:10:15;;;;;;;3.63;1.27;;;32.90;30.90;;;;;;5015164;28;20077;-81
2022/05/24 08:12:41;;;;;;;4.10;0.70;;;33.70;29.10;;;;;;5033564;28;20503;-80
2022/05/24 08:15:08;;;;;;;3.35;0.73;;;34.20;27.20;;;;;;5034903;28;20036;-80
2022/05/24 08:17:34;;;;;;;1.85;0.38;;;30.40;30.80;;;;;;5035005;28;20108;-80
2022/05/24 08:20:00;;;;;;;3.53;0.77;;;31.30;31.10;;;;;;5021430;28;20072;-80
2022/05/24 08:22:26;;;;;;;2.53;0.85;;;32.80;28.60;;;;;;5034945;28;20021;-77
2022/05/24 08:24:51;;;;;;;4.45;0.80;;;29.70;32.80;;;;;;5024639;28;20038;-80
2022/05/24 08:27:17;;;;;;;3.03;0.40;;;29.20;34.90;;;;;;5014939;28;20523;-80
2022/05/24 08:29:44;;;;;;;3.17;0.65;;;28.60;35.60;;;;;;5015027;28;20026;-79
2022/05/24 08:32:12;;;;;;;3.75;1.25;;;26.80;38.10;;;;;;5014934;28;20065;-80
2022/05/24 08:34:38;;;;;;;4.10;0.70;;;26.30;40.00;;;;;;5014549;28;20729;-80
2022/05/24 08:37:05;;;;;;;6.25;0.75;;;28.00;38.10;;;;;;5015031;28;20513;-80
2022/05/24 08:39:31;;;;;;;3.17;0.55;;;29.80;34.40;;;;;;5014746;28;20575;-80
2022/05/24 08:42:11;;;;;;;3.05;0.40;;;31.00;32.90;;;;;;5014664;28;20062;-80
2022/05/24 08:50:15;;;;;;;3.95;0.35;;;33.10;27.40;;;;;;5014625;28;20057;-80
2022/05/24 08:52:57;;;;;;;3.00;0.52;;;33.80;29.20;;;;;;5014603;28;20025;-80
2022/05/24 08:55:24;;;;;;;3.05;0.70;;;33.40;27.20;;;;;;5014415;28;20424;-80
2022/05/24 08:57:57;;;;;;;2.53;0.50;;;30.70;30.20;;;;;;5014353;28;20048;-80
2022/05/24 09:00:42;;;;;;;5.63;0.75;;;28.50;33.20;;;;;;5014413;28;20042;-80
2022/05/24 09:03:09;;;;;;;3.65;0.70;;;26.90;36.80;;;;;;5029643;28;20034;-80
2022/05/24 09:05:51;;;;;;;4.68;0.70;;;26.40;37.60;;;;;;5014252;28;20029;-80
2022/05/24 09:08:28;;;;;;;2.55;0.40;;;26.80;37.20;;;;;;5018027;28;20041;-80
2022/05/24 09:11:09;;;;;;;3.25;0.57;;;28.30;35.80;;;;;;5022032;28;20025;-80
2022/05/24 09:13:40;;;;;;;3.60;0.50;;;30.30;33.50;;;;;;5032753;28;20025;-80
2022/05/24 09:16:12;;;;;;;4.55;0.68;;;31.60;29.00;;;;;;5025680;28;20037;-80
2022/05/24 09:19:30;;;;;;;2.00;0.30;;;31.70;29.90;;;;;;5014131;28;20036;-80
2022/05/24 09:21:56;;;;;;;2.80;0.40;;;29.40;32.50;;;;;;5017783;28;20065;-80
2022/05/24 09:24:27;;;;;;;4.57;0.70;;;28.70;32.60;;;;;;5029300;28;20022;-80
2022/05/24 09:27:03;;;;;;;3.65;1.00;;;29.20;33.10;;;;;;5012447;28;20101;-80
2022/05/24 09:29:28;;;;;;;2.72;0.60;;;30.10;31.80;;;;;;5013657;28;20018;-80
2022/05/24 09:31:57;;;;;;;3.15;0.63;;;28.60;34.20;;;;;;5013933;28;20424;-80
2022/05/24 09:34:28;;;;;;;5.43;0.90;;;30.20;33.60;;;;;;5033645;28;20017;-80
2022/05/24 09:37:00;;;;;;;2.92;0.50;;;31.30;30.00;;;;;;5033717;28;20385;-80
2022/05/24 09:39:35;;;;;;;2.33;0.70;;;32.30;28.90;;;;;;5019800;28;20026;-80
2022/05/24 09:42:21;;;;;;;3.25;0.40;;;33.00;28.70;;;;;;5012463;28;20365;-80
2022/05/24 09:44:59;;;;;;;4.18;0.70;;;31.50;30.30;;;;;;5014125;28;20487;-80
2022/05/24 09:47:49;;;;;;;1.85;0.60;;;32.20;29.10;;;;;;5013338;28;20112;-80
2022/05/24 09:50:31;;;;;;;2.30;0.50;;;33.30;27.90;;;;;;5028716;28;20022;-80
2022/05/24 09:53:02;;;;;;;2.75;0.45;;;33.80;25.80;;;;;;5013734;28;20045;-80
2022/05/24 09:55:55;;;;;;;2.97;1.02;;;34.10;26.60;;;;;;5012168;28;20409;-80
2022/05/24 09:58:35;;;;;;;2.63;0.40;;;31.90;28.90;;;;;;5013502;28;20176;-80
2022/05/24 10:01:08;;;;;;;2.15;0.55;;;32.00;27.30;;;;;;5013443;28;20488;-79
2022/05/24 10:03:40;;;;;;;5.88;0.57;;;32.30;28.10;;;;;;5013251;28;20029;-80
2022/05/24 10:06:26;;;;;;;2.63;0.60;;;32.20;29.80;;;;;;5012982;28;20034;-80
2022/05/24 10:09:08;;;;;;;2.20;0.70;;;30.50;29.70;;;;;;5013450;28;20030;-80
2022/05/24 10:11:47;;;;;;;4.75;0.57;;;30.20;31.30;;;;;;5022574;28;20028;-80
2022/05/24 10:14:50;;;;;;;1.75;0.40;;;29.60;32.90;;;;;;5014046;28;20480;-80
2022/05/24 10:17:47;;;;;;;4.88;0.55;;;29.50;30.10;;;;;;5013318;28;20109;-80
2022/05/24 10:20:20;;;;;;;1.65;0.32;;;29.80;31.00;;;;;;5027264;28;20117;-80
2022/05/24 10:22:56;;;;;;;3.25;0.50;;;30.20;29.10;;;;;;5032852;28;20022;-80
2022/05/24 10:25:23;;;;;;;2.47;0.40;;;30.20;28.80;;;;;;5033410;28;20128;-80
2022/05/24 10:27:52;;;;;;;5.03;0.70;;;29.40;29.70;;;;;;5032776;28;20017;-80
2022/05/24 10:30:38;;;;;;;2.53;0.40;;;30.00;31.00;;;;;;5031559;28;20030;-80
2022/05/24 10:39:12;;;;;;;2.22;0.47;;;28.90;32.50;;;;;;5017063;28;19967;-80
2022/05/24 10:41:54;;;;;;;1.17;0.30;;;28.40;33.70;;;;;;5011489;28;20100;-79
2022/05/24 10:44:45;;;;;;;2.22;0.30;;;28.10;34.30;;;;;;5013113;28;20550;-79
2022/05/24 10:47:42;;;;;;;2.55;0.45;;;27.20;35.10;;;;;;5012333;28;20029;-79
2022/05/24 10:50:15;;;;;;;3.85;0.65;;;26.70;36.70;;;;;;5012920;28;20032;-79
2022/05/24 10:53:00;;;;;;;2.33;0.40;;;26.30;37.50;;;;;;5012883;28;20032;-79
2022/05/24 10:55:31;;;;;;;1.35;0.20;;;26.00;38.30;;;;;;5012931;28;20049;-79
2022/05/24 10:58:00;;;;;;;2.13;0.40;;;25.70;36.40;;;;;;5012821;28;20428;-79
2022/05/24 11:00:37;;;;;;;0.83;0.30;;;25.40;38.00;;;;;;5011845;28;20029;-80
2022/05/24 11:03:11;;;;;;;1.75;0.20;;;25.60;37.90;;;;;;5012852;28;20061;-79
2022/05/24 11:05:49;;;;;;;2.03;0.30;;;25.80;36.30;;;;;;5022494;28;20400;-80
2022/05/24 11:08:33;;;;;;;2.47;0.30;;;25.80;37.40;;;;;;5032497;28;20039;-80
2022/05/24 11:11:10;;;;;;;0.40;0.20;;;25.40;36.00;;;;;;5030237;28;20056;-80
2022/05/24 11:13:47;;;;;;;1.98;0.28;;;25.00;37.40;;;;;;5032522;28;20041;-80
2022/05/24 11:16:22;;;;;;;1.15;0.15;;;24.70;38.40;;;;;;5033977;28;20021;-80
2022/05/24 11:18:47;;;;;;;1.48;0.50;;;24.30;39.30;;;;;;5035937;28;20029;-80
2022/05/24 11:21:31;;;;;;;5.60;0.80;;;24.30;39.60;;;;;;5034824;28;20486;-80
2022/05/24 11:24:11;;;;;;;4.80;0.43;;;24.30;39.40;;;;;;5034862;28;20113;-80
2022/05/24 11:26:46;;;;;;;1.20;0.20;;;24.40;39.80;;;;;;5034410;28;20048;-80
2022/05/24 11:29:19;;;;;;;3.10;0.40;;;24.60;39.30;;;;;;5031616;28;20056;-80
2022/05/24 11:31:49;;;;;;;4.82;1.15;;;24.80;40.00;;;;;;5016065;28;20557;-80
2022/05/24 11:34:20;;;;;;;2.00;0.30;;;25.20;39.80;;;;;;5035164;28;20030;-80
2022/05/24 11:37:01;;;;;;;1.45;0.20;;;25.30;38.50;;;;;;5025297;28;20044;-80
2022/05/24 11:39:30;;;;;;;2.72;0.28;;;25.40;38.50;;;;;;5016235;28;20419;-80
2022/05/24 11:42:32;;;;;;;2.22;0.85;;;25.30;37.50;;;;;;5030907;28;20555;-79
2022/05/24 11:44:58;;;;;;;2.22;0.40;;;24.60;37.20;;;;;;5014868;28;20030;-80
2022/05/24 11:47:37;;;;;;;0.95;0.20;;;24.10;37.60;;;;;;5014580;28;20456;-80
2022/05/24 11:50:31;;;;;;;3.45;0.30;;;23.90;38.60;;;;;;5027029;28;20798;-80
2022/05/24 11:53:15;;;;;;;0.50;0.20;;;23.90;39.80;;;;;;5015734;28;20032;-80
2022/05/24 11:55:53;;;;;;;1.75;0.30;;;23.90;39.00;;;;;;5015575;28;20041;-80
2022/05/24 11:58:21;;;;;;;0.32;0.13;;;23.80;37.20;;;;;;5015257;28;20073;-80
2022/05/24 12:01:09;;;;;;;1.27;0.30;;;23.80;38.50;;;;;;5015900;28;20112;-80
2022/05/24 12:10:20;;;;;;;5.53;0.40;;;23.70;37.10;;;;;;5015808;28;20036;-80
2022/05/24 12:13:13;;;;;;;2.72;0.35;;;23.80;40.40;;;;;;5032864;28;20017;-80
2022/05/24 12:15:40;;;;;;;1.65;0.30;;;23.90;40.50;;;;;;5034999;28;20038;-80
2022/05/24 12:18:06;;;;;;;1.15;0.30;;;24.30;40.00;;;;;;5035174;28;20014;-80
2022/05/24 12:20:34;;;;;;;1.15;0.30;;;24.30;39.10;;;;;;5034933;28;20128;-79
2022/05/24 12:23:06;;;;;;;2.30;0.32;;;24.20;38.90;;;;;;5025887;28;20030;-79
2022/05/24 12:26:02;;;;;;;1.85;0.38;;;24.00;39.50;;;;;;5013888;28;20064;-80
2022/05/24 12:28:37;;;;;;;1.33;0.50;;;23.90;40.30;;;;;;5029634;28;20029;-79
2022/05/24 12:31:18;;;;;;;1.80;0.20;;;23.50;38.90;;;;;;5015026;28;20682;-79
2022/05/24 12:33:54;;;;;;;0.22;0.10;;;23.40;39.00;;;;;;5015635;28;20084;-79
2022/05/24 12:36:22;;;;;;;2.30;0.60;;;23.40;40.80;;;;;;5029858;28;20053;-79
2022/05/24 12:39:09;;;;;;;4.50;0.40;;;23.70;38.90;;;;;;5014079;28;20379;-79
2022/05/24 12:41:44;;;;;;;1.83;0.40;;;23.50;40.50;;;;;;5013484;28;20671;-79
2022/05/24 12:44:17;;;;;;;43.65;5.40;;;23.50;38.00;;;;;;5023719;28;20032;-79
2022/05/24 12:46:54;;;;;;;2.20;0.50;;;23.60;38.70;;;;;;5034364;28;20025;-79
2022/05/24 12:49:28;;;;;;;1.85;0.32;;;23.60;39.90;;;;;;5034389;28;20101;-79
2022/05/24 12:51:56;;;;;;;2.35;0.47;;;23.60;38.30;;;;;;5031976;28;20029;-79
2022/05/24 12:54:47;;;;;;;1.50;0.40;;;23.60;37.40;;;;;;5014525;28;20444;-79
2022/05/24 12:57:21;;;;;;;1.40;0.20;;;23.40;39.80;;;;;;5013606;28;20042;-79
2022/05/24 12:59:53;;;;;;;2.30;0.55;;;23.60;39.60;;;;;;5013291;28;20116;-79
2022/05/24 13:02:37;;;;;;;1.92;0.22;;;23.20;37.70;;;;;;5014755;28;20034;-79
2022/05/24 13:05:09;;;;;;;2.38;0.30;;;22.80;37.60;;;;;;5014165;28;20038;-79
2022/05/24 13:07:44;;;;;;;0.75;0.22;;;22.80;37.90;;;;;;5014241;28;20030;-79
2022/05/24 13:10:31;;;;;;;7.97;0.60;;;22.70;39.50;;;;;;5013263;28;20034;-79
2022/05/24 13:13:09;;;;;;;3.42;0.40;;;22.70;39.40;;;;;;5014115;28;20108;-79
2022/05/24 13:15:40;;;;;;;21.42;3.25;;;22.80;38.60;;;;;;5032005;28;20029;-79
2022/05/24 13:18:14;;;;;;;0.68;0.30;;;22.70;39.70;;;;;;5033807;28;20025;-79
2022/05/24 13:20:44;;;;;;;1.95;0.20;;;22.30;40.90;;;;;;5049293;28;20033;-80
2022/05/24 13:23:18;;;;;;;165.82;19.08;;;22.40;41.90;;;;;;5015838;28;20037;-79
2022/05/24 13:25:51;;;;;;;79.30;9.77;;;22.40;42.70;;;;;;5013846;28;20500;-79
2022/05/24 13:28:39;;;;;;;221.30;28.42;;;22.50;42.70;;;;;;5013801;28;20060;-80
2022/05/24 13:33:56;;;;;;;120.07;16.27;;;22.50;43.00;;;;;;5019423;28;20102;-80
2022/05/24 13:36:31;;;;;;;5.88;1.00;;;22.70;41.80;;;;;;5012722;28;20092;-80
2022/05/24 13:39:03;;;;;;;3.05;0.40;;;22.80;41.70;;;;;;5013044;28;20445;-80
2022/05/24 13:41:33;;;;;;;2.58;0.50;;;22.80;41.30;;;;;;5013798;28;20520;-80
2022/05/24 13:44:17;;;;;;;0.80;0.38;;;22.80;41.40;;;;;;5024366;28;20646;-79
2022/05/24 13:46:59;;;;;;;1.13;0.28;;;22.60;41.60;;;;;;5033185;28;20487;-79
2022/05/24 13:49:31;;;;;;;3.88;0.40;;;22.30;42.30;;;;;;5033292;28;20021;-80
2022/05/24 13:52:21;;;;;;;2.58;0.70;;;22.20;43.80;;;;;;5015975;28;20053;-79
2022/05/24 13:54:48;;;;;;;3.03;0.45;;;22.00;43.80;;;;;;5013324;28;20026;-80
2022/05/24 13:57:27;;;;;;;5.78;0.50;;;21.90;44.60;;;;;;5013357;28;20041;-80
2022/05/24 14:00:02;;;;;;;224.02;26.48;;;21.70;45.30;;;;;;5013936;28;20046;-80
2022/05/24 14:02:28;;;;;;;6.68;1.23;;;21.40;46.80;;;;;;5013337;28;20062;-80